sensor_id;sensor_type;location;lat;lon;timestamp;pressure;altitude;pressure_sealevel;temperature;humidity
28626;BME280;18905;42.668;23.364;2023-04-19T00:14:33;94646.88;;;11.12;100.00
28626;BME280;18905;42.668;23.364;2023-04-19T00:16:59;94662.50;;;11.06;100.00
28626;BME280;18905;42.668;23.364;2023-04-19T00:19:25;94610.72;;;10.84;100.00
28626;BME280;18905;42.668;23.364;2023-04-19T00:21:51;94596.56;;;10.87;100.00
28626;BME280;18905;42.668;23.364;2023-04-19T00:24:17;94602.00;;;10.66;100.00
28626;BME280;18905;42.668;23.364;2023-04-19T00:26:43;94688.00;;;10.76;100.00
28626;BME280;18905;42.668;23.364;2023-04-19T00:29:09;94585.25;;;10.32;100.00
28626;BME280;18905;42.668;23.364;2023-04-19T00:31:35;94636.38;;;10.78;100.00
28626;BME280;18905;42.668;23.364;2023-04-19T00:34:03;94558.59;;;10.51;100.00
28626;BME280;18905;42.668;23.364;2023-04-19T00:36:30;94591.56;;;10.77;100.00
28626;BME280;18905;42.668;23.364;2023-04-19T00:38:56;94539.09;;;10.25;100.00
28626;BME280;18905;42.668;23.364;2023-04-19T00:41:26;94689.88;;;11.05;100.00
28626;BME280;18905;42.668;23.364;2023-04-19T00:43:52;94683.53;;;11.21;100.00
28626;BME280;18905;42.668;23.364;2023-04-19T00:46:21;94663.38;;;10.49;100.00
28626;BME280;18905;42.668;23.364;2023-04-19T00:48:50;94586.00;;;10.03;100.00
28626;BME280;18905;42.668;23.364;2023-04-19T00:51:19;94577.84;;;10.20;100.00
28626;BME280;18905;42.668;23.364;2023-04-19T00:53:45;94542.44;;;9.93;100.00
28626;BME280;18905;42.668;23.364;2023-04-19T00:56:12;94585.47;;;10.47;100.00
28626;BME280;18905;42.668;23.364;2023-04-19T00:58:39;94672.78;;;11.13;100.00
28626;BME280;18905;42.668;23.364;2023-04-19T01:01:07;94677.13;;;11.26;100.00
28626;BME280;18905;42.668;23.364;2023-04-19T01:03:34;94549.53;;;10.06;100.00
28626;BME280;18905;42.668;23.364;2023-04-19T01:06:01;94516.91;;;9.90;100.00
28626;BME280;18905;42.668;23.364;2023-04-19T01:08:27;94666.97;;;10.61;100.00
28626;BME280;18905;42.668;23.364;2023-04-19T01:10:52;94471.69;;;9.38;100.00
28626;BME280;18905;42.668;23.364;2023-04-19T01:13:18;94617.28;;;10.54;100.00
28626;BME280;18905;42.668;23.364;2023-04-19T01:15:44;94663.75;;;10.68;100.00
28626;BME280;18905;42.668;23.364;2023-04-19T01:18:10;94665.03;;;10.91;100.00
28626;BME280;18905;42.668;23.364;2023-04-19T01:20:36;94582.69;;;10.56;100.00
28626;BME280;18905;42.668;23.364;2023-04-19T01:23:02;94667.75;;;11.23;100.00
28626;BME280;18905;42.668;23.364;2023-04-19T01:25:30;94663.94;;;11.24;100.00
28626;BME280;18905;42.668;23.364;2023-04-19T01:27:56;94673.84;;;11.00;100.00
28626;BME280;18905;42.668;23.364;2023-04-19T01:30:25;94520.13;;;10.33;100.00
28626;BME280;18905;42.668;23.364;2023-04-19T01:32:54;94665.88;;;11.36;100.00
28626;BME280;18905;42.668;23.364;2023-04-19T01:35:22;94566.50;;;10.56;100.00
28626;BME280;18905;42.668;23.364;2023-04-19T01:37:48;94645.22;;;10.58;100.00
28626;BME280;18905;42.668;23.364;2023-04-19T01:40:18;94569.63;;;10.37;100.00
28626;BME280;18905;42.668;23.364;2023-04-19T01:42:47;94661.13;;;10.80;100.00
28626;BME280;18905;42.668;23.364;2023-04-19T01:45:15;94533.50;;;10.01;100.00
28626;BME280;18905;42.668;23.364;2023-04-19T01:47:41;94594.94;;;9.95;100.00
28626;BME280;18905;42.668;23.364;2023-04-19T01:50:08;94567.47;;;9.73;100.00
28626;BME280;18905;42.668;23.364;2023-04-19T01:52:34;94657.06;;;10.45;100.00
28626;BME280;18905;42.668;23.364;2023-04-19T01:55:00;94668.41;;;10.30;100.00
28626;BME280;18905;42.668;23.364;2023-04-19T01:57:26;94659.13;;;10.19;100.00
28626;BME280;18905;42.668;23.364;2023-04-19T01:59:52;94581.44;;;9.58;100.00
28626;BME280;18905;42.668;23.364;2023-04-19T02:02:19;94486.22;;;9.16;100.00
28626;BME280;18905;42.668;23.364;2023-04-19T02:04:48;94659.00;;;10.07;100.00
28626;BME280;18905;42.668;23.364;2023-04-19T02:07:19;94649.16;;;10.11;100.00
28626;BME280;18905;42.668;23.364;2023-04-19T02:09:46;94656.31;;;10.07;100.00
28626;BME280;18905;42.668;23.364;2023-04-19T02:12:12;94559.22;;;9.32;100.00
28626;BME280;18905;42.668;23.364;2023-04-19T02:14:37;94484.56;;;8.86;100.00
28626;BME280;18905;42.668;23.364;2023-04-19T02:17:03;94651.47;;;9.83;100.00
28626;BME280;18905;42.668;23.364;2023-04-19T02:19:29;94601.16;;;9.50;100.00
28626;BME280;18905;42.668;23.364;2023-04-19T02:21:55;94548.22;;;8.91;100.00
28626;BME280;18905;42.668;23.364;2023-04-19T02:24:25;94536.44;;;9.12;100.00
28626;BME280;18905;42.668;23.364;2023-04-19T02:26:50;94541.47;;;9.22;100.00
28626;BME280;18905;42.668;23.364;2023-04-19T02:29:17;94498.06;;;8.78;100.00
28626;BME280;18905;42.668;23.364;2023-04-19T02:31:44;94513.34;;;9.03;100.00
28626;BME280;18905;42.668;23.364;2023-04-19T02:34:11;94659.06;;;9.81;100.00
28626;BME280;18905;42.668;23.364;2023-04-19T02:36:36;94557.53;;;9.10;100.00
28626;BME280;18905;42.668;23.364;2023-04-19T02:39:02;94536.16;;;8.97;100.00
28626;BME280;18905;42.668;23.364;2023-04-19T02:41:32;94603.41;;;9.39;100.00
28626;BME280;18905;42.668;23.364;2023-04-19T02:43:58;94655.13;;;9.79;100.00
28626;BME280;18905;42.668;23.364;2023-04-19T02:46:24;94475.53;;;8.82;100.00
28626;BME280;18905;42.668;23.364;2023-04-19T02:48:50;94649.53;;;9.92;100.00
28626;BME280;18905;42.668;23.364;2023-04-19T02:51:16;94518.69;;;9.20;100.00
28626;BME280;18905;42.668;23.364;2023-04-19T02:53:42;94526.88;;;9.32;100.00
28626;BME280;18905;42.668;23.364;2023-04-19T02:56:11;94538.00;;;9.22;100.00
28626;BME280;18905;42.668;23.364;2023-04-19T02:58:40;94642.66;;;9.57;100.00
28626;BME280;18905;42.668;23.364;2023-04-19T03:01:06;94519.91;;;8.76;100.00
28626;BME280;18905;42.668;23.364;2023-04-19T03:03:31;94551.38;;;8.93;100.00
28626;BME280;18905;42.668;23.364;2023-04-19T03:05:57;94497.91;;;8.66;100.00
28626;BME280;18905;42.668;23.364;2023-04-19T03:08:23;94502.03;;;8.55;100.00
28626;BME280;18905;42.668;23.364;2023-04-19T03:10:52;94460.94;;;8.37;100.00
28626;BME280;18905;42.668;23.364;2023-04-19T03:13:18;94590.13;;;9.17;100.00
28626;BME280;18905;42.668;23.364;2023-04-19T03:15:48;94494.75;;;8.64;100.00
28626;BME280;18905;42.668;23.364;2023-04-19T03:18:14;94480.84;;;8.45;100.00
28626;BME280;18905;42.668;23.364;2023-04-19T03:20:41;94517.19;;;8.85;100.00
28626;BME280;18905;42.668;23.364;2023-04-19T03:23:07;94486.69;;;8.64;100.00
28626;BME280;18905;42.668;23.364;2023-04-19T03:25:36;94568.50;;;8.88;100.00
28626;BME280;18905;42.668;23.364;2023-04-19T03:28:02;94489.72;;;8.54;100.00
28626;BME280;18905;42.668;23.364;2023-04-19T03:30:28;94490.66;;;8.24;100.00
28626;BME280;18905;42.668;23.364;2023-04-19T04:52:10;94564.72;;;8.47;100.00
28626;BME280;18905;42.668;23.364;2023-04-19T04:54:36;94490.50;;;8.12;100.00
28626;BME280;18905;42.668;23.364;2023-04-19T12:32:37;94485.34;;;15.69;85.30
28626;BME280;18905;42.668;23.364;2023-04-19T12:35:03;94441.19;;;15.56;85.56
28626;BME280;18905;42.668;23.364;2023-04-19T12:37:29;94531.47;;;15.62;89.08
28626;BME280;18905;42.668;23.364;2023-04-19T14:53:58;94462.53;;;13.37;100.00
28626;BME280;18905;42.668;23.364;2023-04-19T14:56:23;94441.53;;;13.34;100.00
28626;BME280;18905;42.668;23.364;2023-04-19T14:58:51;94443.53;;;13.52;100.00
28626;BME280;18905;42.668;23.364;2023-04-19T15:01:18;94437.84;;;13.11;100.00
28626;BME280;18905;42.668;23.364;2023-04-19T15:03:44;94449.28;;;13.04;100.00
28626;BME280;18905;42.668;23.364;2023-04-19T15:06:10;94569.25;;;14.06;100.00
28626;BME280;18905;42.668;23.364;2023-04-19T15:08:35;94465.13;;;13.64;100.00
28626;BME280;18905;42.668;23.364;2023-04-19T15:11:04;94579.69;;;14.51;100.00
28626;BME280;18905;42.668;23.364;2023-04-19T15:13:30;94533.53;;;14.35;100.00
28626;BME280;18905;42.668;23.364;2023-04-19T15:15:56;94493.78;;;14.12;100.00
28626;BME280;18905;42.668;23.364;2023-04-19T15:18:22;94580.94;;;14.72;100.00
28626;BME280;18905;42.668;23.364;2023-04-19T15:20:48;94509.38;;;14.15;100.00
28626;BME280;18905;42.668;23.364;2023-04-19T15:23:14;94587.94;;;14.73;100.00
28626;BME280;18905;42.668;23.364;2023-04-19T15:25:40;94581.66;;;14.54;100.00
28626;BME280;18905;42.668;23.364;2023-04-19T15:28:06;94495.56;;;14.04;100.00
28626;BME280;18905;42.668;23.364;2023-04-19T15:30:34;94593.81;;;14.75;100.00
28626;BME280;18905;42.668;23.364;2023-04-19T15:33:00;94442.22;;;13.46;100.00
28626;BME280;18905;42.668;23.364;2023-04-19T15:35:26;94447.25;;;13.94;100.00
28626;BME280;18905;42.668;23.364;2023-04-19T15:37:55;94535.34;;;16.06;100.00
28626;BME280;18905;42.668;23.364;2023-04-19T15:40:21;94569.97;;;15.41;100.00
28626;BME280;18905;42.668;23.364;2023-04-19T15:42:49;94573.94;;;14.90;100.00
28626;BME280;18905;42.668;23.364;2023-04-19T15:45:14;94500.13;;;13.85;100.00
28626;BME280;18905;42.668;23.364;2023-04-19T15:47:40;94533.81;;;13.68;100.00
28626;BME280;18905;42.668;23.364;2023-04-19T15:50:07;94475.19;;;13.33;100.00
28626;BME280;18905;42.668;23.364;2023-04-19T15:52:39;94490.06;;;13.54;100.00
28626;BME280;18905;42.668;23.364;2023-04-19T15:55:05;94524.53;;;13.38;100.00
28626;BME280;18905;42.668;23.364;2023-04-19T16:02:41;94410.94;;;11.56;100.00
28626;BME280;18905;42.668;23.364;2023-04-19T16:10:17;94583.00;;;12.21;100.00
28626;BME280;18905;42.668;23.364;2023-04-19T16:12:43;94438.41;;;11.22;100.00
28626;BME280;18905;42.668;23.364;2023-04-19T16:15:10;94483.94;;;11.68;100.00
28626;BME280;18905;42.668;23.364;2023-04-19T16:17:36;94505.56;;;11.56;100.00
28626;BME280;18905;42.668;23.364;2023-04-19T16:22:37;94502.00;;;11.64;100.00
28626;BME280;18905;42.668;23.364;2023-04-19T16:32:48;94481.81;;;11.73;100.00
28626;BME280;18905;42.668;23.364;2023-04-19T16:35:14;94578.50;;;12.49;100.00
28626;BME280;18905;42.668;23.364;2023-04-19T16:37:42;94460.38;;;11.32;100.00
28626;BME280;18905;42.668;23.364;2023-04-19T16:40:11;94574.25;;;12.00;100.00
28626;BME280;18905;42.668;23.364;2023-04-19T16:42:38;94449.00;;;11.39;100.00
28626;BME280;18905;42.668;23.364;2023-04-19T16:45:04;94571.94;;;12.50;100.00
28626;BME280;18905;42.668;23.364;2023-04-19T16:47:31;94534.84;;;12.38;100.00
28626;BME280;18905;42.668;23.364;2023-04-19T16:49:57;94485.97;;;11.71;100.00
28626;BME280;18905;42.668;23.364;2023-04-19T16:52:24;94499.03;;;11.81;100.00
28626;BME280;18905;42.668;23.364;2023-04-19T16:54:50;94533.72;;;12.27;100.00
28626;BME280;18905;42.668;23.364;2023-04-19T16:57:16;94621.75;;;12.97;100.00
28626;BME280;18905;42.668;23.364;2023-04-19T16:59:44;94531.50;;;12.57;100.00
28626;BME280;18905;42.668;23.364;2023-04-19T17:02:11;94585.84;;;12.88;100.00
28626;BME280;18905;42.668;23.364;2023-04-19T17:04:36;94541.84;;;12.39;100.00
28626;BME280;18905;42.668;23.364;2023-04-19T17:07:02;94507.34;;;12.24;100.00
28626;BME280;18905;42.668;23.364;2023-04-19T17:09:28;94520.06;;;12.36;100.00
28626;BME280;18905;42.668;23.364;2023-04-19T17:11:55;94549.84;;;12.36;100.00
28626;BME280;18905;42.668;23.364;2023-04-19T17:14:22;94582.06;;;12.65;100.00
28626;BME280;18905;42.668;23.364;2023-04-19T17:16:48;94550.91;;;12.07;100.00
28626;BME280;18905;42.668;23.364;2023-04-19T17:19:14;94558.09;;;12.27;100.00
28626;BME280;18905;42.668;23.364;2023-04-19T17:21:40;94509.31;;;12.00;100.00
28626;BME280;18905;42.668;23.364;2023-04-19T17:24:06;94574.88;;;12.21;100.00
28626;BME280;18905;42.668;23.364;2023-04-19T17:26:32;94549.09;;;11.75;100.00
28626;BME280;18905;42.668;23.364;2023-04-19T17:28:57;94504.41;;;11.33;100.00
28626;BME280;18905;42.668;23.364;2023-04-19T17:31:26;94670.53;;;12.37;100.00
28626;BME280;18905;42.668;23.364;2023-04-19T17:33:54;94522.50;;;11.65;100.00
28626;BME280;18905;42.668;23.364;2023-04-19T17:36:20;94615.72;;;12.40;100.00
28626;BME280;18905;42.668;23.364;2023-04-19T17:38:46;94686.00;;;12.48;100.00
28626;BME280;18905;42.668;23.364;2023-04-19T17:41:13;94535.63;;;11.54;100.00
28626;BME280;18905;42.668;23.364;2023-04-19T17:43:45;94539.31;;;11.38;100.00
28626;BME280;18905;42.668;23.364;2023-04-19T17:46:13;94708.31;;;12.45;100.00
28626;BME280;18905;42.668;23.364;2023-04-19T17:48:39;94525.72;;;11.02;100.00
28626;BME280;18905;42.668;23.364;2023-04-19T17:51:06;94607.03;;;11.41;100.00
28626;BME280;18905;42.668;23.364;2023-04-19T17:58:42;94566.09;;;10.66;100.00
28626;BME280;18905;42.668;23.364;2023-04-19T18:03:42;94719.56;;;11.67;100.00
28626;BME280;18905;42.668;23.364;2023-04-19T18:11:19;94725.47;;;11.81;100.00
28626;BME280;18905;42.668;23.364;2023-04-19T18:13:45;94543.03;;;10.27;100.00
28626;BME280;18905;42.668;23.364;2023-04-19T18:16:11;94591.19;;;10.46;100.00
28626;BME280;18905;42.668;23.364;2023-04-19T18:18:38;94563.72;;;10.44;100.00
28626;BME280;18905;42.668;23.364;2023-04-19T18:21:06;94667.63;;;11.20;100.00
28626;BME280;18905;42.668;23.364;2023-04-19T18:23:35;94737.75;;;11.57;100.00
28626;BME280;18905;42.668;23.364;2023-04-19T18:26:01;94746.19;;;11.77;100.00
28626;BME280;18905;42.668;23.364;2023-04-19T18:28:28;94585.09;;;10.90;100.00
28626;BME280;18905;42.668;23.364;2023-04-19T18:30:59;94756.78;;;12.14;100.00
28626;BME280;18905;42.668;23.364;2023-04-19T18:33:25;94585.75;;;11.07;100.00
28626;BME280;18905;42.668;23.364;2023-04-19T18:35:51;94667.72;;;11.64;100.00
28626;BME280;18905;42.668;23.364;2023-04-19T18:38:19;94654.09;;;11.61;100.00
28626;BME280;18905;42.668;23.364;2023-04-19T18:40:45;94610.25;;;11.35;100.00
28626;BME280;18905;42.668;23.364;2023-04-19T18:43:11;94726.72;;;12.28;100.00
28626;BME280;18905;42.668;23.364;2023-04-19T18:45:37;94662.34;;;11.88;100.00
28626;BME280;18905;42.668;23.364;2023-04-19T18:48:03;94648.91;;;11.68;100.00
28626;BME280;18905;42.668;23.364;2023-04-19T18:50:29;94647.19;;;11.31;100.00
28626;BME280;18905;42.668;23.364;2023-04-19T18:52:56;94763.47;;;12.17;100.00
28626;BME280;18905;42.668;23.364;2023-04-19T19:50:34;94692.13;;;10.16;100.00
28626;BME280;18905;42.668;23.364;2023-04-19T19:53:00;94806.53;;;10.32;100.00
28626;BME280;18905;42.668;23.364;2023-04-19T19:55:26;94746.88;;;10.16;100.00
28626;BME280;18905;42.668;23.364;2023-04-19T19:57:53;94647.22;;;9.74;100.00
28626;BME280;18905;42.668;23.364;2023-04-19T20:00:21;94814.34;;;11.00;100.00
28626;BME280;18905;42.668;23.364;2023-04-19T20:02:46;94709.63;;;10.47;100.00
28626;BME280;18905;42.668;23.364;2023-04-19T20:23:19;94713.38;;;11.04;100.00
28626;BME280;18905;42.668;23.364;2023-04-19T20:25:45;94638.97;;;10.66;100.00
28626;BME280;18905;42.668;23.364;2023-04-19T20:28:12;94634.19;;;10.71;100.00
28626;BME280;18905;42.668;23.364;2023-04-19T20:30:39;94808.81;;;11.87;100.00
28626;BME280;18905;42.668;23.364;2023-04-19T20:33:05;94803.63;;;11.94;100.00
28626;BME280;18905;42.668;23.364;2023-04-19T20:35:31;94810.28;;;11.97;100.00
28626;BME280;18905;42.668;23.364;2023-04-19T20:38:01;94804.56;;;11.98;100.00
28626;BME280;18905;42.668;23.364;2023-04-19T20:40:30;94795.81;;;11.81;100.00
28626;BME280;18905;42.668;23.364;2023-04-19T20:42:58;94794.53;;;11.37;100.00
28626;BME280;18905;42.668;23.364;2023-04-19T21:35:55;94610.13;;;8.82;100.00
28626;BME280;18905;42.668;23.364;2023-04-19T21:38:21;94654.81;;;9.09;100.00
28626;BME280;18905;42.668;23.364;2023-04-19T21:40:46;94705.66;;;9.36;100.00
28626;BME280;18905;42.668;23.364;2023-04-19T21:43:14;94644.50;;;9.11;100.00
28626;BME280;18905;42.668;23.364;2023-04-19T21:45:43;94706.38;;;9.70;100.00
28626;BME280;18905;42.668;23.364;2023-04-19T21:48:09;94746.91;;;9.99;100.00
28626;BME280;18905;42.668;23.364;2023-04-19T21:50:35;94717.47;;;9.69;100.00
28626;BME280;18905;42.668;23.364;2023-04-19T21:53:01;94644.50;;;9.11;100.00
28626;BME280;18905;42.668;23.364;2023-04-19T21:55:27;94802.56;;;10.21;100.00
28626;BME280;18905;42.668;23.364;2023-04-19T21:57:56;94768.84;;;9.55;100.00
